sensor_id;sensor_type;location;lat;lon;timestamp;temperature;humidity
31619;DHT22;18230;51.502;7.108;2023-07-29T00:03:31;20.50;99.90
31619;DHT22;18230;51.502;7.108;2023-07-29T00:08:32;20.40;99.90
31619;DHT22;18230;51.502;7.108;2023-07-29T00:13:33;20.30;99.90
31619;DHT22;18230;51.502;7.108;2023-07-29T00:18:33;20.20;99.90
31619;DHT22;18230;51.502;7.108;2023-07-29T00:23:34;20.20;99.90
31619;DHT22;18230;51.502;7.108;2023-07-29T00:28:35;20.20;99.90
31619;DHT22;18230;51.502;7.108;2023-07-29T00:33:35;20.20;99.90
31619;DHT22;18230;51.502;7.108;2023-07-29T00:38:36;20.10;99.90
31619;DHT22;18230;51.502;7.108;2023-07-29T00:43:37;20.10;99.90
31619;DHT22;18230;51.502;7.108;2023-07-29T00:48:37;20.10;99.90
31619;DHT22;18230;51.502;7.108;2023-07-29T00:53:38;20.10;99.90
31619;DHT22;18230;51.502;7.108;2023-07-29T00:58:39;20.00;99.90
31619;DHT22;18230;51.502;7.108;2023-07-29T01:03:40;20.00;99.90
31619;DHT22;18230;51.502;7.108;2023-07-29T01:14:18;19.90;99.90
31619;DHT22;18230;51.502;7.108;2023-07-29T01:25:03;19.90;99.90
31619;DHT22;18230;51.502;7.108;2023-07-29T01:30:05;19.80;99.90
31619;DHT22;18230;51.502;7.108;2023-07-29T01:40:18;19.90;99.90
31619;DHT22;18230;51.502;7.108;2023-07-29T01:45:23;19.90;99.90
31619;DHT22;18230;51.502;7.108;2023-07-29T01:50:24;19.90;99.90
31619;DHT22;18230;51.502;7.108;2023-07-29T01:55:25;19.90;99.90
31619;DHT22;18230;51.502;7.108;2023-07-29T02:00:26;19.90;99.90
31619;DHT22;18230;51.502;7.108;2023-07-29T02:05:27;20.00;99.90
31619;DHT22;18230;51.502;7.108;2023-07-29T02:10:27;20.00;99.90
31619;DHT22;18230;51.502;7.108;2023-07-29T02:15:29;20.00;99.90
31619;DHT22;18230;51.502;7.108;2023-07-29T02:20:30;20.10;99.90
31619;DHT22;18230;51.502;7.108;2023-07-29T02:25:31;20.10;99.90
31619;DHT22;18230;51.502;7.108;2023-07-29T02:30:31;20.00;99.90
31619;DHT22;18230;51.502;7.108;2023-07-29T02:35:32;20.00;99.90
31619;DHT22;18230;51.502;7.108;2023-07-29T02:40:33;20.00;99.90
31619;DHT22;18230;51.502;7.108;2023-07-29T02:45:34;20.00;99.90
31619;DHT22;18230;51.502;7.108;2023-07-29T02:50:34;20.00;99.90
31619;DHT22;18230;51.502;7.108;2023-07-29T02:55:35;20.00;99.90
31619;DHT22;18230;51.502;7.108;2023-07-29T03:00:36;19.90;99.90
31619;DHT22;18230;51.502;7.108;2023-07-29T03:05:36;19.90;99.90
31619;DHT22;18230;51.502;7.108;2023-07-29T03:10:38;19.90;99.90
31619;DHT22;18230;51.502;7.108;2023-07-29T03:15:39;19.90;99.90
31619;DHT22;18230;51.502;7.108;2023-07-29T03:20:39;19.90;99.90
31619;DHT22;18230;51.502;7.108;2023-07-29T03:25:40;19.90;99.90
31619;DHT22;18230;51.502;7.108;2023-07-29T03:30:41;19.90;99.90
31619;DHT22;18230;51.502;7.108;2023-07-29T03:35:42;19.90;99.90
31619;DHT22;18230;51.502;7.108;2023-07-29T03:40:45;20.00;99.90
31619;DHT22;18230;51.502;7.108;2023-07-29T03:45:46;20.00;99.90
31619;DHT22;18230;51.502;7.108;2023-07-29T03:50:46;19.90;99.90
31619;DHT22;18230;51.502;7.108;2023-07-29T03:55:47;20.00;99.90
31619;DHT22;18230;51.502;7.108;2023-07-29T04:00:48;20.00;99.90
31619;DHT22;18230;51.502;7.108;2023-07-29T04:05:49;20.00;99.90
31619;DHT22;18230;51.502;7.108;2023-07-29T04:10:50;20.00;99.90
31619;DHT22;18230;51.502;7.108;2023-07-29T04:15:50;20.00;99.90
31619;DHT22;18230;51.502;7.108;2023-07-29T04:20:51;20.00;99.90
31619;DHT22;18230;51.502;7.108;2023-07-29T04:25:53;20.00;99.90
31619;DHT22;18230;51.502;7.108;2023-07-29T04:30:54;20.00;99.90
31619;DHT22;18230;51.502;7.108;2023-07-29T04:35:55;20.00;99.90
31619;DHT22;18230;51.502;7.108;2023-07-29T04:40:56;20.00;99.90
31619;DHT22;18230;51.502;7.108;2023-07-29T04:45:57;19.90;99.90
31619;DHT22;18230;51.502;7.108;2023-07-29T04:50:57;19.80;99.90
31619;DHT22;18230;51.502;7.108;2023-07-29T04:55:58;19.80;99.90
31619;DHT22;18230;51.502;7.108;2023-07-29T05:00:59;19.80;99.90
31619;DHT22;18230;51.502;7.108;2023-07-29T05:06:00;19.70;99.90
31619;DHT22;18230;51.502;7.108;2023-07-29T05:11:00;19.70;99.90
31619;DHT22;18230;51.502;7.108;2023-07-29T05:16:01;19.60;99.90
31619;DHT22;18230;51.502;7.108;2023-07-29T05:21:02;19.60;99.90
31619;DHT22;18230;51.502;7.108;2023-07-29T05:26:03;19.70;99.90
31619;DHT22;18230;51.502;7.108;2023-07-29T05:31:04;19.80;99.90
31619;DHT22;18230;51.502;7.108;2023-07-29T05:36:04;19.80;99.90
31619;DHT22;18230;51.502;7.108;2023-07-29T05:41:05;19.90;99.90
31619;DHT22;18230;51.502;7.108;2023-07-29T05:46:06;19.90;99.90
31619;DHT22;18230;51.502;7.108;2023-07-29T05:51:07;19.80;99.90
31619;DHT22;18230;51.502;7.108;2023-07-29T05:56:07;19.70;99.90
31619;DHT22;18230;51.502;7.108;2023-07-29T06:01:08;19.60;99.90
31619;DHT22;18230;51.502;7.108;2023-07-29T06:06:09;19.50;99.90
31619;DHT22;18230;51.502;7.108;2023-07-29T06:11:09;19.50;99.90
31619;DHT22;18230;51.502;7.108;2023-07-29T06:16:10;19.60;99.90
31619;DHT22;18230;51.502;7.108;2023-07-29T06:21:11;19.60;99.90
31619;DHT22;18230;51.502;7.108;2023-07-29T06:26:17;19.50;99.90
31619;DHT22;18230;51.502;7.108;2023-07-29T06:31:17;19.60;99.90
31619;DHT22;18230;51.502;7.108;2023-07-29T06:36:18;19.60;99.90
31619;DHT22;18230;51.502;7.108;2023-07-29T06:41:19;19.60;99.90
31619;DHT22;18230;51.502;7.108;2023-07-29T06:46:20;19.70;99.90
31619;DHT22;18230;51.502;7.108;2023-07-29T06:51:20;19.70;99.90
31619;DHT22;18230;51.502;7.108;2023-07-29T06:56:21;19.80;99.90
31619;DHT22;18230;51.502;7.108;2023-07-29T07:01:22;19.70;99.90
31619;DHT22;18230;51.502;7.108;2023-07-29T07:06:22;19.80;99.90
31619;DHT22;18230;51.502;7.108;2023-07-29T07:11:24;19.90;99.90
31619;DHT22;18230;51.502;7.108;2023-07-29T07:16:25;20.10;99.90
31619;DHT22;18230;51.502;7.108;2023-07-29T07:21:26;20.50;99.90
31619;DHT22;18230;51.502;7.108;2023-07-29T07:26:27;20.40;99.90
31619;DHT22;18230;51.502;7.108;2023-07-29T07:31:27;20.50;99.90
31619;DHT22;18230;51.502;7.108;2023-07-29T07:36:29;20.60;99.90
31619;DHT22;18230;51.502;7.108;2023-07-29T07:41:30;20.80;99.90
31619;DHT22;18230;51.502;7.108;2023-07-29T07:46:31;21.00;99.90
31619;DHT22;18230;51.502;7.108;2023-07-29T07:51:32;21.00;99.90
31619;DHT22;18230;51.502;7.108;2023-07-29T07:56:33;21.10;99.90
31619;DHT22;18230;51.502;7.108;2023-07-29T08:01:40;21.40;99.90
31619;DHT22;18230;51.502;7.108;2023-07-29T08:06:40;21.50;99.90
31619;DHT22;18230;51.502;7.108;2023-07-29T08:11:41;21.50;99.90
31619;DHT22;18230;51.502;7.108;2023-07-29T08:16:42;21.30;99.90
31619;DHT22;18230;51.502;7.108;2023-07-29T08:21:42;21.40;99.90
31619;DHT22;18230;51.502;7.108;2023-07-29T08:26:43;21.80;99.90
31619;DHT22;18230;51.502;7.108;2023-07-29T08:31:44;21.80;99.90
31619;DHT22;18230;51.502;7.108;2023-07-29T08:36:44;21.80;99.90
31619;DHT22;18230;51.502;7.108;2023-07-29T08:46:52;22.30;99.90
31619;DHT22;18230;51.502;7.108;2023-07-29T08:51:54;22.30;99.90
31619;DHT22;18230;51.502;7.108;2023-07-29T08:56:58;22.30;99.90
31619;DHT22;18230;51.502;7.108;2023-07-29T09:01:59;22.60;99.90
31619;DHT22;18230;51.502;7.108;2023-07-29T09:07:00;22.80;99.90
31619;DHT22;18230;51.502;7.108;2023-07-29T09:12:01;22.50;99.90
31619;DHT22;18230;51.502;7.108;2023-07-29T09:17:02;22.50;99.90
31619;DHT22;18230;51.502;7.108;2023-07-29T09:22:17;22.90;99.90
31619;DHT22;18230;51.502;7.108;2023-07-29T09:27:25;23.30;99.90
31619;DHT22;18230;51.502;7.108;2023-07-29T09:32:27;23.30;99.90
31619;DHT22;18230;51.502;7.108;2023-07-29T09:37:28;23.40;99.90
31619;DHT22;18230;51.502;7.108;2023-07-29T09:42:28;23.80;99.90
31619;DHT22;18230;51.502;7.108;2023-07-29T09:47:29;23.70;99.90
31619;DHT22;18230;51.502;7.108;2023-07-29T09:52:30;23.40;99.90
31619;DHT22;18230;51.502;7.108;2023-07-29T09:57:33;23.10;99.90
31619;DHT22;18230;51.502;7.108;2023-07-29T10:02:34;23.00;99.90
31619;DHT22;18230;51.502;7.108;2023-07-29T10:07:37;23.00;99.90
31619;DHT22;18230;51.502;7.108;2023-07-29T10:12:39;22.90;99.90
31619;DHT22;18230;51.502;7.108;2023-07-29T10:17:43;22.90;99.90
31619;DHT22;18230;51.502;7.108;2023-07-29T10:22:47;23.00;99.90
31619;DHT22;18230;51.502;7.108;2023-07-29T10:27:56;23.20;99.90
31619;DHT22;18230;51.502;7.108;2023-07-29T10:33:05;23.50;99.90
31619;DHT22;18230;51.502;7.108;2023-07-29T10:38:07;23.70;99.90
31619;DHT22;18230;51.502;7.108;2023-07-29T10:43:12;23.80;99.90
31619;DHT22;18230;51.502;7.108;2023-07-29T10:53:37;23.90;99.90
31619;DHT22;18230;51.502;7.108;2023-07-29T10:58:43;24.00;99.90
31619;DHT22;18230;51.502;7.108;2023-07-29T11:04:01;24.00;99.90
31619;DHT22;18230;51.502;7.108;2023-07-29T11:14:41;24.90;99.90
31619;DHT22;18230;51.502;7.108;2023-07-29T11:19:43;24.80;99.90
31619;DHT22;18230;51.502;7.108;2023-07-29T11:24:43;24.90;99.90
31619;DHT22;18230;51.502;7.108;2023-07-29T11:29:44;25.00;99.90
31619;DHT22;18230;51.502;7.108;2023-07-29T11:34:45;24.80;99.90
31619;DHT22;18230;51.502;7.108;2023-07-29T11:39:46;24.70;99.90
31619;DHT22;18230;51.502;7.108;2023-07-29T11:44:47;24.80;99.90
31619;DHT22;18230;51.502;7.108;2023-07-29T11:49:47;24.80;99.90
31619;DHT22;18230;51.502;7.108;2023-07-29T11:54:49;24.40;99.90
31619;DHT22;18230;51.502;7.108;2023-07-29T11:59:50;24.50;99.90
31619;DHT22;18230;51.502;7.108;2023-07-29T12:04:51;24.90;99.90
31619;DHT22;18230;51.502;7.108;2023-07-29T12:09:53;25.00;99.90
31619;DHT22;18230;51.502;7.108;2023-07-29T12:14:54;25.10;99.90
31619;DHT22;18230;51.502;7.108;2023-07-29T12:19:55;25.20;99.90
31619;DHT22;18230;51.502;7.108;2023-07-29T12:24:57;25.00;99.90
31619;DHT22;18230;51.502;7.108;2023-07-29T12:30:00;25.10;99.90
31619;DHT22;18230;51.502;7.108;2023-07-29T12:35:09;24.90;99.90
31619;DHT22;18230;51.502;7.108;2023-07-29T12:40:25;24.80;99.90
31619;DHT22;18230;51.502;7.108;2023-07-29T12:45:26;25.10;99.90
31619;DHT22;18230;51.502;7.108;2023-07-29T12:50:29;25.40;99.90
31619;DHT22;18230;51.502;7.108;2023-07-29T12:55:30;25.40;99.90
31619;DHT22;18230;51.502;7.108;2023-07-29T13:00:31;25.30;99.90
31619;DHT22;18230;51.502;7.108;2023-07-29T13:05:32;25.30;99.90
31619;DHT22;18230;51.502;7.108;2023-07-29T13:10:40;25.50;99.90
31619;DHT22;18230;51.502;7.108;2023-07-29T13:15:42;25.30;99.90
31619;DHT22;18230;51.502;7.108;2023-07-29T13:20:42;25.30;99.90
31619;DHT22;18230;51.502;7.108;2023-07-29T13:25:43;25.30;99.90
31619;DHT22;18230;51.502;7.108;2023-07-29T13:30:44;25.30;99.90
31619;DHT22;18230;51.502;7.108;2023-07-29T13:35:45;25.20;99.90
31619;DHT22;18230;51.502;7.108;2023-07-29T13:40:46;25.00;99.90
31619;DHT22;18230;51.502;7.108;2023-07-29T13:45:47;24.90;99.90
31619;DHT22;18230;51.502;7.108;2023-07-29T13:50:49;24.90;99.90
31619;DHT22;18230;51.502;7.108;2023-07-29T13:55:51;24.70;99.90
31619;DHT22;18230;51.502;7.108;2023-07-29T14:00:52;24.30;99.90
31619;DHT22;18230;51.502;7.108;2023-07-29T14:05:52;24.00;99.90
31619;DHT22;18230;51.502;7.108;2023-07-29T14:10:53;23.90;99.90
31619;DHT22;18230;51.502;7.108;2023-07-29T14:15:54;23.50;99.90
31619;DHT22;18230;51.502;7.108;2023-07-29T14:20:54;23.10;99.90
31619;DHT22;18230;51.502;7.108;2023-07-29T14:25:55;22.20;99.90
31619;DHT22;18230;51.502;7.108;2023-07-29T14:30:56;20.80;99.90
31619;DHT22;18230;51.502;7.108;2023-07-29T14:35:56;19.70;99.90
31619;DHT22;18230;51.502;7.108;2023-07-29T14:40:57;19.10;99.90
31619;DHT22;18230;51.502;7.108;2023-07-29T14:45:58;18.70;99.90
31619;DHT22;18230;51.502;7.108;2023-07-29T14:51:00;19.10;99.90
31619;DHT22;18230;51.502;7.108;2023-07-29T14:56:00;20.30;99.90
31619;DHT22;18230;51.502;7.108;2023-07-29T15:01:01;20.90;99.90
31619;DHT22;18230;51.502;7.108;2023-07-29T15:06:02;21.30;99.90
31619;DHT22;18230;51.502;7.108;2023-07-29T15:11:03;21.70;99.90
31619;DHT22;18230;51.502;7.108;2023-07-29T15:16:06;21.40;99.90
31619;DHT22;18230;51.502;7.108;2023-07-29T15:21:07;21.00;99.90
31619;DHT22;18230;51.502;7.108;2023-07-29T15:26:07;20.80;99.90
31619;DHT22;18230;51.502;7.108;2023-07-29T15:31:08;20.70;99.90
31619;DHT22;18230;51.502;7.108;2023-07-29T15:36:15;20.80;99.90
31619;DHT22;18230;51.502;7.108;2023-07-29T15:41:16;20.80;99.90
31619;DHT22;18230;51.502;7.108;2023-07-29T15:46:17;21.10;99.90
31619;DHT22;18230;51.502;7.108;2023-07-29T15:51:18;21.60;99.90
31619;DHT22;18230;51.502;7.108;2023-07-29T15:56:19;21.80;99.90
31619;DHT22;18230;51.502;7.108;2023-07-29T16:01:21;21.80;99.90
31619;DHT22;18230;51.502;7.108;2023-07-29T16:06:23;22.00;99.90
31619;DHT22;18230;51.502;7.108;2023-07-29T16:11:24;22.90;99.90
31619;DHT22;18230;51.502;7.108;2023-07-29T16:16:28;23.00;99.90
31619;DHT22;18230;51.502;7.108;2023-07-29T16:21:29;23.20;99.90
31619;DHT22;18230;51.502;7.108;2023-07-29T16:26:30;23.90;99.90
31619;DHT22;18230;51.502;7.108;2023-07-29T16:31:31;24.30;99.90
31619;DHT22;18230;51.502;7.108;2023-07-29T16:36:31;24.60;99.90
31619;DHT22;18230;51.502;7.108;2023-07-29T16:41:32;24.20;99.90
31619;DHT22;18230;51.502;7.108;2023-07-29T16:46:33;24.10;99.90
31619;DHT22;18230;51.502;7.108;2023-07-29T16:51:34;23.90;99.90
31619;DHT22;18230;51.502;7.108;2023-07-29T16:56:34;23.80;99.90
31619;DHT22;18230;51.502;7.108;2023-07-29T17:01:35;23.60;99.90
31619;DHT22;18230;51.502;7.108;2023-07-29T17:06:36;23.30;99.90
31619;DHT22;18230;51.502;7.108;2023-07-29T17:11:36;23.10;99.90
31619;DHT22;18230;51.502;7.108;2023-07-29T17:16:37;23.10;99.90
31619;DHT22;18230;51.502;7.108;2023-07-29T17:21:38;22.90;99.90
31619;DHT22;18230;51.502;7.108;2023-07-29T17:26:39;22.90;99.90
31619;DHT22;18230;51.502;7.108;2023-07-29T17:31:40;22.90;99.90
31619;DHT22;18230;51.502;7.108;2023-07-29T17:36:44;22.90;99.90
31619;DHT22;18230;51.502;7.108;2023-07-29T17:41:44;22.70;99.90
31619;DHT22;18230;51.502;7.108;2023-07-29T17:46:45;22.60;99.90
31619;DHT22;18230;51.502;7.108;2023-07-29T17:51:46;22.50;99.90
31619;DHT22;18230;51.502;7.108;2023-07-29T17:56:46;22.50;99.90
31619;DHT22;18230;51.502;7.108;2023-07-29T18:01:47;22.50;99.90
31619;DHT22;18230;51.502;7.108;2023-07-29T18:06:49;22.50;99.90
31619;DHT22;18230;51.502;7.108;2023-07-29T18:11:50;22.50;99.90
31619;DHT22;18230;51.502;7.108;2023-07-29T18:16:51;23.00;99.90
31619;DHT22;18230;51.502;7.108;2023-07-29T18:21:51;23.20;99.90
31619;DHT22;18230;51.502;7.108;2023-07-29T18:26:52;23.00;99.90
31619;DHT22;18230;51.502;7.108;2023-07-29T18:31:53;22.60;99.90
31619;DHT22;18230;51.502;7.108;2023-07-29T18:36:53;22.60;99.90
31619;DHT22;18230;51.502;7.108;2023-07-29T18:41:54;22.60;99.90
31619;DHT22;18230;51.502;7.108;2023-07-29T18:46:55;22.50;99.90
31619;DHT22;18230;51.502;7.108;2023-07-29T18:51:55;22.20;99.90
31619;DHT22;18230;51.502;7.108;2023-07-29T18:56:56;22.00;99.90
31619;DHT22;18230;51.502;7.108;2023-07-29T19:01:57;22.00;99.90
31619;DHT22;18230;51.502;7.108;2023-07-29T19:06:58;22.00;99.90
31619;DHT22;18230;51.502;7.108;2023-07-29T19:11:58;21.90;99.90
31619;DHT22;18230;51.502;7.108;2023-07-29T19:16:59;21.60;99.90
31619;DHT22;18230;51.502;7.108;2023-07-29T19:22:00;21.40;99.90
31619;DHT22;18230;51.502;7.108;2023-07-29T19:27:00;21.30;99.90
31619;DHT22;18230;51.502;7.108;2023-07-29T19:32:04;21.00;99.90
31619;DHT22;18230;51.502;7.108;2023-07-29T19:37:05;20.90;99.90
31619;DHT22;18230;51.502;7.108;2023-07-29T19:42:06;20.90;99.90
31619;DHT22;18230;51.502;7.108;2023-07-29T19:47:07;20.90;99.90
31619;DHT22;18230;51.502;7.108;2023-07-29T19:52:09;20.70;99.90
31619;DHT22;18230;51.502;7.108;2023-07-29T19:57:10;20.70;99.90
31619;DHT22;18230;51.502;7.108;2023-07-29T20:02:11;20.60;99.90
31619;DHT22;18230;51.502;7.108;2023-07-29T20:07:11;20.50;99.90
31619;DHT22;18230;51.502;7.108;2023-07-29T20:12:12;20.50;99.90
31619;DHT22;18230;51.502;7.108;2023-07-29T20:17:13;20.50;99.90
31619;DHT22;18230;51.502;7.108;2023-07-29T20:22:13;20.40;99.90
31619;DHT22;18230;51.502;7.108;2023-07-29T20:27:14;20.20;99.90
31619;DHT22;18230;51.502;7.108;2023-07-29T20:32:15;20.10;99.90
31619;DHT22;18230;51.502;7.108;2023-07-29T20:37:15;20.10;99.90
31619;DHT22;18230;51.502;7.108;2023-07-29T20:42:16;20.00;99.90
31619;DHT22;18230;51.502;7.108;2023-07-29T20:47:17;20.00;99.90
31619;DHT22;18230;51.502;7.108;2023-07-29T20:52:18;19.90;99.90
31619;DHT22;18230;51.502;7.108;2023-07-29T20:57:19;19.90;99.90
31619;DHT22;18230;51.502;7.108;2023-07-29T21:02:19;19.90;99.90
31619;DHT22;18230;51.502;7.108;2023-07-29T21:07:20;19.80;99.90
31619;DHT22;18230;51.502;7.108;2023-07-29T21:12:21;19.80;99.90
31619;DHT22;18230;51.502;7.108;2023-07-29T21:17:21;19.70;99.90
31619;DHT22;18230;51.502;7.108;2023-07-29T21:22:22;19.70;99.90
31619;DHT22;18230;51.502;7.108;2023-07-29T21:27:23;19.70;99.90
31619;DHT22;18230;51.502;7.108;2023-07-29T21:32:24;19.70;99.90
31619;DHT22;18230;51.502;7.108;2023-07-29T21:37:25;19.70;99.90
31619;DHT22;18230;51.502;7.108;2023-07-29T21:42:25;19.60;99.90
31619;DHT22;18230;51.502;7.108;2023-07-29T21:47:26;19.60;99.90
31619;DHT22;18230;51.502;7.108;2023-07-29T21:52:30;19.50;99.90
31619;DHT22;18230;51.502;7.108;2023-07-29T21:57:31;19.40;99.90
31619;DHT22;18230;51.502;7.108;2023-07-29T22:02:32;19.40;99.90
31619;DHT22;18230;51.502;7.108;2023-07-29T22:07:33;19.30;99.90
31619;DHT22;18230;51.502;7.108;2023-07-29T22:12:33;19.30;99.90
31619;DHT22;18230;51.502;7.108;2023-07-29T22:17:34;19.30;99.90
31619;DHT22;18230;51.502;7.108;2023-07-29T22:22:35;19.20;99.90
31619;DHT22;18230;51.502;7.108;2023-07-29T22:27:36;19.20;99.90
31619;DHT22;18230;51.502;7.108;2023-07-29T22:32:36;19.20;99.90
31619;DHT22;18230;51.502;7.108;2023-07-29T22:37:37;19.10;99.90
31619;DHT22;18230;51.502;7.108;2023-07-29T22:42:38;19.10;99.90
31619;DHT22;18230;51.502;7.108;2023-07-29T22:47:38;19.10;99.90
31619;DHT22;18230;51.502;7.108;2023-07-29T22:52:39;19.00;99.90
31619;DHT22;18230;51.502;7.108;2023-07-29T22:57:40;19.00;99.90
31619;DHT22;18230;51.502;7.108;2023-07-29T23:02:40;18.90;99.90
31619;DHT22;18230;51.502;7.108;2023-07-29T23:07:41;18.90;99.90
31619;DHT22;18230;51.502;7.108;2023-07-29T23:12:42;18.80;99.90
31619;DHT22;18230;51.502;7.108;2023-07-29T23:17:42;18.60;99.90
31619;DHT22;18230;51.502;7.108;2023-07-29T23:22:43;18.60;99.90
31619;DHT22;18230;51.502;7.108;2023-07-29T23:27:46;18.60;99.90
31619;DHT22;18230;51.502;7.108;2023-07-29T23:32:47;18.60;99.90
31619;DHT22;18230;51.502;7.108;2023-07-29T23:37:47;18.50;99.90
31619;DHT22;18230;51.502;7.108;2023-07-29T23:42:48;18.40;99.90
31619;DHT22;18230;51.502;7.108;2023-07-29T23:47:49;18.40;99.90
31619;DHT22;18230;51.502;7.108;2023-07-29T23:52:49;18.40;99.90
31619;DHT22;18230;51.502;7.108;2023-07-29T23:57:50;18.30;99.90
